Terminal Aerodrome Forecast
Issued by NWS

Home | Current Version | Previous Version | Text Only | Print | Product List | Glossary Off
Versions: 1 2 3 4 5 6 7 8 9 10 11 12 13 14 15 16 17 18

000
FTUS43 KGRB 060917 AAA
TAFMTW
TAF AMD
KMTW 060917Z 0609/0706 17008KT 5SM BR SKC WS010/22030KT
     FM061400 18010G17KT P6SM SCT040 BKN120 PROB30 0619/0621 4SM
      -TSRA BR BKN040CB
     FM062100 17012G20KT P6SM SCT040 BKN100
      TEMPO 0700/0704 3SM +TSRA OVC025CB
     FM070400 VRB03KT 5SM -RA BR SCT011 BKN025
      TEMPO 0704/0706 2SM +TSRA OVC011CB=

USA.gov is the U.S. government's official web portal to all federal, state and local government web resources and services.